Argonia, KS

3:31 AM CST on November 27, 2014 (GMT -0600)
Anthony Medical Center | Change Station
CLOSE
Current Station
Personal Weather Station
Location: Anthony, KS
Elevation: 1355 ft
Nearby Weather Stations

Elev 1355 ft 37.16 °N, 98.02 °W | Updated 57 seconds ago

Clear
Clear
25.0 °F
Feels Like 25 °F
N
0.0
Wind Variable Wind from North
Gusts 1.0 mph

Today
High -- | Low -- °F
--% Chance of Precip.
Yesterday
High -- | Low -- °F
Precip. -- in
7:22 AM 5:14 PM
Waxing Crescent, 27% visible
Pressure 30.50 in
Visibility 10.0 miles
Clouds Few 10000 ft
Windchill 25 °F
Dew Point 20 °F
Humidity 82%
Rainfall 0.00 in
Snow Depth Not available.
UV 0 out of 12
Pollen .10 out of 12
Air Quality Not available.
Flu Activity Not available.
METAR KICT 270853Z 02004KT 10SM FEW100 M02/M08 A3047 RMK AO2 SLP328 T10221078 53008

More Conditions Fewer Conditions

Pressure 30.50 in
Visibility 10.0 miles
Clouds Few 10000 ft
Windchill 25 °F
Dew Point 20 °F
Humidity 82%
Rainfall 0.00 in
Snow Depth Not available.
UV 0 out of 12
Pollen .10 out of 12
Air Quality Not available.
Flu Activity Not available.
METAR KICT 270853Z 02004KT 10SM FEW100 M02/M08 A3047 RMK AO2 SLP328 T10221078 53008

More Conditions Fewer Conditions

10-Day Weather Forecast

Almanac

Astronomy

Nov. 27, 2014 Rise Set
Actual Time
Civil Twilight
Nautical Twilight
Astronomical Twilight
Moon
Length of Visible Light
Length of Day
Tomorrow will be .
, % of the Moon is Illuminated

Today's Extremes

State Highs State Lows

Community

WunderPhotos

Upload Photos

1,773,965 photos uploaded!

WunderBlogs® & News

Nearby

Air Quality

  Air Quality AQ Index Pollutant
Not available.

Snow Depth

Station Depth Elevation

Earthquake Activity

City Distance Mag. Time & Date
Minimum magnitude displayed is 2.5.

Coastal Water Temperatures

Place Temperature

Nearby Weather Stations